Map

Track Data

SID SEASON NUMBER BASIN SUBBASIN NAME ISO_TIME NATURE LAT LON WMO_WIND WMO_PRES WMO_AGENCY TRACK_TYPE DIST2LAND LANDFALL IFLAG USA_AGENCY USA_ATCF_ID USA_LAT USA_LON USA_RECORD USA_STATUS USA_WIND USA_PRES USA_SSHS USA_R34_NE USA_R34_SE USA_R34_SW USA_R34_NW USA_R50_NE USA_R50_SE USA_R50_SW USA_R50_NW USA_R64_NE USA_R64_SE USA_R64_SW USA_R64_NW USA_POCI USA_ROCI USA_RMW USA_EYE TOKYO_LAT TOKYO_LON TOKYO_GRADE TOKYO_WIND TOKYO_PRES TOKYO_R50_DIR TOKYO_R50_LONG TOKYO_R50_SHORT TOKYO_R30_DIR TOKYO_R30_LONG TOKYO_R30_SHORT TOKYO_LAND CMA_LAT CMA_LON CMA_CAT CMA_WIND CMA_PRES HKO_LAT HKO_LON HKO_CAT HKO_WIND HKO_PRES NEWDELHI_LAT NEWDELHI_LON NEWDELHI_GRADE NEWDELHI_WIND NEWDELHI_PRES NEWDELHI_CI NEWDELHI_DP NEWDELHI_POCI REUNION_LAT REUNION_LON REUNION_TYPE REUNION_WIND REUNION_PRES REUNION_TNUM REUNION_CI REUNION_RMW REUNION_R34_NE REUNION_R34_SE REUNION_R34_SW REUNION_R34_NW REUNION_R50_NE REUNION_R50_SE REUNION_R50_SW REUNION_R50_NW REUNION_R64_NE REUNION_R64_SE REUNION_R64_SW REUNION_R64_NW BOM_LAT BOM_LON BOM_TYPE BOM_WIND BOM_PRES BOM_TNUM BOM_CI BOM_RMW BOM_R34_NE BOM_R34_SE BOM_R34_SW BOM_R34_NW BOM_R50_NE BOM_R50_SE BOM_R50_SW BOM_R50_NW BOM_R64_NE BOM_R64_SE BOM_R64_SW BOM_R64_NW BOM_ROCI BOM_POCI BOM_EYE BOM_POS_METHOD BOM_PRES_METHOD NADI_LAT NADI_LON NADI_CAT NADI_WIND NADI_PRES WELLINGTON_LAT WELLINGTON_LON WELLINGTON_WIND WELLINGTON_PRES DS824_LAT DS824_LON DS824_STAGE DS824_WIND DS824_PRES TD9636_LAT TD9636_LON TD9636_STAGE TD9636_WIND TD9636_PRES TD9635_LAT TD9635_LON TD9635_WIND TD9635_PRES TD9635_ROCI NEUMANN_LAT NEUMANN_LON NEUMANN_CLASS NEUMANN_WIND NEUMANN_PRES MLC_LAT MLC_LON MLC_CLASS MLC_WIND MLC_PRES USA_GUST BOM_GUST BOM_GUST_PER REUNION_GUST REUNION_GUST_PER USA_SEAHGT USA_SEARAD_NE USA_SEARAD_SE USA_SEARAD_SW USA_SEARAD_NW STORM_SPEED STORM_DIR
1902312N14132 1902 49 WP MM NOT_NAMED 1902-11-07 16:00:00 NR 13.9000 131.900 main 719 546 __________O___ -1 13.9000 131.900 7 54 280
1902312N14132 1902 49 WP MM NOT_NAMED 1902-11-07 18:00:00 NR 14.2242 130.061 main 546 335 __________P___ -1 14.2242 130.061 7 53 280
1902312N14132 1902 49 WP MM NOT_NAMED 1902-11-07 21:00:00 NR 14.6678 127.411 main 335 141 __________P___ -1 14.6678 127.411 7 49 280
1902312N14132 1902 49 WP MM NOT_NAMED 1902-11-08 00:00:00 NR 15.0400 125.075 main 141 123 __________P___ -1 15.0400 125.075 7 41 279
1902312N14132 1902 49 WP MM NOT_NAMED 1902-11-08 03:00:00 NR 15.3257 123.257 main 130 116 __________P___ -1 15.3257 123.257 7 33 279
1902312N14132 1902 49 WP MM NOT_NAMED 1902-11-08 04:00:00 NR 15.4000 122.800 main 108 56 __________O___ -1 15.4000 122.800 3 22 280
1902312N14132 1902 49 WP MM NOT_NAMED 1902-11-08 06:00:00 NR 15.5173 122.131 main 56 10 __________P___ -1 15.5173 122.131 3 14 281
1902312N14132 1902 49 WP MM NOT_NAMED 1902-11-08 09:00:00 NR 15.6292 121.608 main 10 0 __________P___ -1 15.6292 121.608 3 7 284
1902312N14132 1902 49 WP MM NOT_NAMED 1902-11-08 12:00:00 NR 15.6839 121.434 main 0 0 __________P___ -1 15.6839 121.434 3 3 286
1902312N14132 1902 49 WP MM NOT_NAMED 1902-11-08 15:00:00 NR 15.7001 121.351 main 0 0 __________P___ -1 15.7001 121.351 3 2 277
1902312N14132 1902 49 WP MM NOT_NAMED 1902-11-08 16:00:00 NR 15.7000 121.300 main 0 0 __________O___ -1 15.7000 121.300 4 7 271
1902312N14132 1902 49 WP MM NOT_NAMED 1902-11-08 18:00:00 NR 15.7091 120.968 main 0 0 __________P___ -1 15.7091 120.968 4 10 270
1902312N14132 1902 49 WP MM NOT_NAMED 1902-11-08 21:00:00 NR 15.6975 120.433 main 0 0 __________P___ -1 15.6975 120.433 4 10 267
1902312N14132 1902 49 WP MM NOT_NAMED 1902-11-09 00:00:00 NR 15.6635 119.885 main 0 0 __________P___ -1 15.6635 119.885 4 10 266
1902312N14132 1902 49 WP MM NOT_NAMED 1902-11-09 03:00:00 NR 15.6168 119.362 main 54 61 __________P___ -1 15.6168 119.362 4 10 265
1902312N14132 1902 49 WP MM NOT_NAMED 1902-11-09 04:00:00 NR 15.6000 119.200 main 69 69 __________O___ -1 15.6000 119.200 2 8 265
1902312N14132 1902 49 WP MM NOT_NAMED 1902-11-09 06:00:00 NR 15.5823 118.924 main 96 96 __________P___ -1 15.5823 118.924 2 8 265
1902312N14132 1902 49 WP MM NOT_NAMED 1902-11-09 09:00:00 NR 15.5501 118.547 main 136 140 __________P___ -1 15.5501 118.547 2 7 264
1902312N14132 1902 49 WP MM NOT_NAMED 1902-11-09 12:00:00 NR 15.5028 118.192 main 170 170 __________P___ -1 15.5028 118.192 2 7 260
1902312N14132 1902 49 WP MM NOT_NAMED 1902-11-09 15:00:00 NR 15.4310 117.828 main 214 214 __________P___ -1 15.4310 117.828 2 7 258
1902312N14132 1902 49 WP MM NOT_NAMED 1902-11-09 16:00:00 NR 15.4000 117.700 main 224 224 __________O___ -1 15.4000 117.700 2 8 255
1902312N14132 1902 49 WP MM NOT_NAMED 1902-11-09 18:00:00 NR 15.3177 117.404 main 258 258 __________P___ -1 15.3177 117.404 2 9 252
1902312N14132 1902 49 WP MM NOT_NAMED 1902-11-09 21:00:00 NR 15.1689 116.940 main 313 313 __________P___ -1 15.1689 116.940 2 9 251
1902312N14132 1902 49 WP MM NOT_NAMED 1902-11-10 00:00:00 NR 15.0062 116.476 main 360 360 __________P___ -1 15.0062 116.476 2 9 250
1902312N14132 1902 49 WP MM NOT_NAMED 1902-11-10 03:00:00 NR 14.8483 116.037 main 418 418 __________P___ -1 14.8483 116.037 2 9 250
1902312N14132 1902 49 WP MM NOT_NAMED 1902-11-10 04:00:00 NR 14.8000 115.900 main 429 429 __________O___ -1 14.8000 115.900 2 8 252
1902312N14132 1902 49 WP MM NOT_NAMED 1902-11-10 06:00:00 NR 14.7269 115.650 main 463 463 __________P___ -1 14.7269 115.650 2 7 254
1902312N14132 1902 49 WP MM NOT_NAMED 1902-11-10 09:00:00 NR 14.6302 115.306 main 497 497 __________P___ -1 14.6302 115.306 2 7 254
1902312N14132 1902 49 WP MM NOT_NAMED 1902-11-10 12:00:00 NR 14.5379 114.991 main 531 531 __________P___ -1 14.5379 114.991 2 6 252
1902312N14132 1902 49 WP MM NOT_NAMED 1902-11-10 15:00:00 NR 14.4375 114.696 main 565 565 __________P___ -1 14.4375 114.696 2 6 250
1902312N14132 1902 49 WP MM NOT_NAMED 1902-11-10 16:00:00 NR 14.4000 114.600 main 574 552 __________O___ -1 14.4000 114.600 2 6 246
1902312N14132 1902 49 WP MM NOT_NAMED 1902-11-10 18:00:00 NR 14.3171 114.411 main 552 518 __________P___ -1 14.3171 114.411 2 6 244
1902312N14132 1902 49 WP MM NOT_NAMED 1902-11-10 21:00:00 NR 14.1760 114.134 main 518 491 __________P___ -1 14.1760 114.134 2 6 241
1902312N14132 1902 49 WP MM NOT_NAMED 1902-11-11 00:00:00 NR 14.0201 113.860 main 491 457 __________P___ -1 14.0201 113.860 2 6 239
1902312N14132 1902 49 WP MM NOT_NAMED 1902-11-11 03:00:00 NR 13.8556 113.590 main 457 444 __________P___ -1 13.8556 113.590 2 6 238
1902312N14132 1902 49 WP MM NOT_NAMED 1902-11-11 04:00:00 NR 13.8000 113.500 main 444 __________O___ -1 13.8000 113.500 2 6 238

Digital Typhoon Data and Search

About IBTrACS Database

This database is a web-friendly format of International Best Track Archive for Climate Stewardship (IBTrACS), a global best track data archive curated by NOAA dating back to 1842.

Updated: 2021-12-08